UKLU/UDJ METAR and TAF weather

Enter ICAO airport designator
Station Type Date Time Source
UKLU METAR 2019/08/22 09:00 UTC NOAA

UKLU 220900Z VRB02MPS 9999 NSC 25/15 Q1024 R10/090070 NOSIG


Station Type Date Time Source
UKLU Decoded METAR 2019/08/22 09:00 UTC NOAA

Station name not available
Aug 22, 2019 - 05:00 AM EDT / 2019.08.22 0900 UTC
Wind: Variable at 4 MPH (4 KT):0
Visibility: greater than 7 mile(s):0
Temperature: 77 F (25 C)
Dew Point: 59 F (15 C)
Relative Humidity: 53%
Pressure (altimeter): 30.24 in. Hg (1024 hPa)
ob: UKLU 220900Z VRB02MPS 9999 NSC 25/15 Q1024 R10/090070 NOSIG
cycle: 9

Station Type Date Time Source
UKLU TAF 2019/04/25 06:24 UTC NOAA

TAF TAF UKLU 250504Z 2506/2615 12005MPS 9999 NSC
TEMPO 2506/2512 15007G12MPS SCT040

Example: see airport list